sensor_id;sensor_type;location;lat;lon;timestamp;pressure;altitude;pressure_sealevel;temperature
32039;BMP280;18549;42.286;22.688;2023-03-01T00:01:30;96022.81;;;13.59
32039;BMP280;18549;42.286;22.688;2023-03-01T00:03:58;96026.31;;;13.56
32039;BMP280;18549;42.286;22.688;2023-03-01T00:06:26;96019.62;;;13.57
32039;BMP280;18549;42.286;22.688;2023-03-01T00:08:53;96021.91;;;13.60
32039;BMP280;18549;42.286;22.688;2023-03-01T00:11:23;96018.62;;;13.59
32039;BMP280;18549;42.286;22.688;2023-03-01T00:13:52;96016.91;;;13.60
32039;BMP280;18549;42.286;22.688;2023-03-01T00:16:22;96016.13;;;13.59
32039;BMP280;18549;42.286;22.688;2023-03-01T00:18:49;96007.06;;;13.58
32039;BMP280;18549;42.286;22.688;2023-03-01T00:21:19;96012.06;;;13.58
32039;BMP280;18549;42.286;22.688;2023-03-01T00:23:46;96013.84;;;13.56
32039;BMP280;18549;42.286;22.688;2023-03-01T00:26:16;96012.16;;;13.57
32039;BMP280;18549;42.286;22.688;2023-03-01T00:28:44;96003.09;;;13.56
32039;BMP280;18549;42.286;22.688;2023-03-01T00:31:13;96004.69;;;13.57
32039;BMP280;18549;42.286;22.688;2023-03-01T00:33:41;95998.00;;;13.57
32039;BMP280;18549;42.286;22.688;2023-03-01T00:36:09;95993.84;;;13.58
32039;BMP280;18549;42.286;22.688;2023-03-01T00:38:37;95998.81;;;13.58
32039;BMP280;18549;42.286;22.688;2023-03-01T00:41:05;95999.69;;;13.57
32039;BMP280;18549;42.286;22.688;2023-03-01T00:43:32;95998.13;;;13.56
32039;BMP280;18549;42.286;22.688;2023-03-01T00:46:04;96003.28;;;13.53
32039;BMP280;18549;42.286;22.688;2023-03-01T00:48:31;95999.00;;;13.55
32039;BMP280;18549;42.286;22.688;2023-03-01T00:51:04;95996.50;;;13.55
32039;BMP280;18549;42.286;22.688;2023-03-01T00:53:31;96000.81;;;13.53
32039;BMP280;18549;42.286;22.688;2023-03-01T00:55:58;96003.19;;;13.54
32039;BMP280;18549;42.286;22.688;2023-03-01T00:58:25;96008.97;;;13.55
32039;BMP280;18549;42.286;22.688;2023-03-01T01:00:52;96003.09;;;13.56
32039;BMP280;18549;42.286;22.688;2023-03-01T01:03:21;96007.16;;;13.57
32039;BMP280;18549;42.286;22.688;2023-03-01T01:05:48;95999.69;;;13.57
32039;BMP280;18549;42.286;22.688;2023-03-01T01:08:15;96005.59;;;13.56
32039;BMP280;18549;42.286;22.688;2023-03-01T01:10:43;95999.13;;;13.53
32039;BMP280;18549;42.286;22.688;2023-03-01T01:13:10;95992.63;;;13.51
32039;BMP280;18549;42.286;22.688;2023-03-01T01:15:38;95986.78;;;13.52
32039;BMP280;18549;42.286;22.688;2023-03-01T01:18:05;95979.22;;;13.53
32039;BMP280;18549;42.286;22.688;2023-03-01T01:20:35;95985.84;;;13.53
32039;BMP280;18549;42.286;22.688;2023-03-01T01:23:02;95979.09;;;13.55
32039;BMP280;18549;42.286;22.688;2023-03-01T01:25:29;95982.34;;;13.55
32039;BMP280;18549;42.286;22.688;2023-03-01T01:27:56;95971.63;;;13.55
32039;BMP280;18549;42.286;22.688;2023-03-01T01:30:23;95975.91;;;13.53
32039;BMP280;18549;42.286;22.688;2023-03-01T01:32:49;95972.41;;;13.55
32039;BMP280;18549;42.286;22.688;2023-03-01T01:35:16;95966.63;;;13.55
32039;BMP280;18549;42.286;22.688;2023-03-01T01:37:44;95964.13;;;13.55
32039;BMP280;18549;42.286;22.688;2023-03-01T01:40:12;95958.38;;;13.54
32039;BMP280;18549;42.286;22.688;2023-03-01T01:42:39;95957.59;;;13.54
32039;BMP280;18549;42.286;22.688;2023-03-01T01:45:27;95958.38;;;13.54
32039;BMP280;18549;42.286;22.688;2023-03-01T01:47:57;95955.88;;;13.54
32039;BMP280;18549;42.286;22.688;2023-03-01T01:50:25;95959.84;;;13.57
32039;BMP280;18549;42.286;22.688;2023-03-01T01:52:54;95954.88;;;13.57
32039;BMP280;18549;42.286;22.688;2023-03-01T01:55:23;95952.47;;;13.55
32039;BMP280;18549;42.286;22.688;2023-03-01T01:57:54;95956.66;;;13.55
32039;BMP280;18549;42.286;22.688;2023-03-01T02:00:23;95950.44;;;13.50
32039;BMP280;18549;42.286;22.688;2023-03-01T02:02:56;95951.44;;;13.47
32039;BMP280;18549;42.286;22.688;2023-03-01T02:05:29;95946.28;;;13.38
32039;BMP280;18549;42.286;22.688;2023-03-01T02:08:01;95953.22;;;13.22
32039;BMP280;18549;42.286;22.688;2023-03-01T02:10:29;95955.91;;;13.19
32039;BMP280;18549;42.286;22.688;2023-03-01T02:12:58;95948.56;;;13.18
32039;BMP280;18549;42.286;22.688;2023-03-01T02:15:26;95947.84;;;13.16
32039;BMP280;18549;42.286;22.688;2023-03-01T02:17:54;95951.25;;;13.15
32039;BMP280;18549;42.286;22.688;2023-03-01T02:20:27;95954.94;;;13.09
32039;BMP280;18549;42.286;22.688;2023-03-01T02:22:55;95949.88;;;13.11
32039;BMP280;18549;42.286;22.688;2023-03-01T02:25:36;95948.78;;;13.15
32039;BMP280;18549;42.286;22.688;2023-03-01T02:28:08;95941.19;;;13.16
32039;BMP280;18549;42.286;22.688;2023-03-01T02:30:38;95940.31;;;13.17
32039;BMP280;18549;42.286;22.688;2023-03-01T02:33:26;95941.78;;;13.19
32039;BMP280;18549;42.286;22.688;2023-03-01T02:35:53;95933.50;;;13.19
32039;BMP280;18549;42.286;22.688;2023-03-01T02:38:21;95940.19;;;13.18
32039;BMP280;18549;42.286;22.688;2023-03-01T02:40:49;95942.66;;;13.18
32039;BMP280;18549;42.286;22.688;2023-03-01T02:43:17;95948.44;;;13.19
32039;BMP280;18549;42.286;22.688;2023-03-01T02:45:52;95944.59;;;13.15
32039;BMP280;18549;42.286;22.688;2023-03-01T02:48:20;95938.00;;;13.14
32039;BMP280;18549;42.286;22.688;2023-03-01T02:50:55;95942.78;;;13.17
32039;BMP280;18549;42.286;22.688;2023-03-01T02:53:36;95948.56;;;13.18
32039;BMP280;18549;42.286;22.688;2023-03-01T02:56:06;95947.84;;;13.16
32039;BMP280;18549;42.286;22.688;2023-03-01T02:58:38;95951.03;;;13.18
32039;BMP280;18549;42.286;22.688;2023-03-01T03:01:12;95947.75;;;13.17
32039;BMP280;18549;42.286;22.688;2023-03-01T03:03:42;95953.53;;;13.18
32039;BMP280;18549;42.286;22.688;2023-03-01T03:06:09;95947.75;;;13.17
32039;BMP280;18549;42.286;22.688;2023-03-01T03:08:36;95945.28;;;13.17
32039;BMP280;18549;42.286;22.688;2023-03-01T03:11:03;95949.56;;;13.15
32039;BMP280;18549;42.286;22.688;2023-03-01T03:13:30;95954.41;;;13.17
32039;BMP280;18549;42.286;22.688;2023-03-01T03:15:57;95957.72;;;13.17
32039;BMP280;18549;42.286;22.688;2023-03-01T03:18:26;95954.31;;;13.18
32039;BMP280;18549;42.286;22.688;2023-03-01T03:20:53;95958.50;;;13.18
32039;BMP280;18549;42.286;22.688;2023-03-01T03:23:21;95957.59;;;13.18
32039;BMP280;18549;42.286;22.688;2023-03-01T03:25:48;95964.19;;;13.19
32039;BMP280;18549;42.286;22.688;2023-03-01T03:28:15;95958.38;;;13.19
32039;BMP280;18549;42.286;22.688;2023-03-01T03:30:43;95960.00;;;13.20
32039;BMP280;18549;42.286;22.688;2023-03-01T03:33:11;95951.63;;;13.21
32039;BMP280;18549;42.286;22.688;2023-03-01T03:35:42;95952.53;;;13.20
32039;BMP280;18549;42.286;22.688;2023-03-01T03:38:13;95955.22;;;13.17
32039;BMP280;18549;42.286;22.688;2023-03-01T03:40:46;95953.53;;;13.18
32039;BMP280;18549;42.286;22.688;2023-03-01T03:43:16;95957.72;;;13.17
32039;BMP280;18549;42.286;22.688;2023-03-01T03:49:03;95961.63;;;13.09
32039;BMP280;18549;42.286;22.688;2023-03-01T03:51:31;95964.59;;;13.14
32039;BMP280;18549;42.286;22.688;2023-03-01T03:53:58;95965.19;;;13.05
32039;BMP280;18549;42.286;22.688;2023-03-01T03:56:25;95968.47;;;13.05
32039;BMP280;18549;42.286;22.688;2023-03-01T03:59:09;95963.41;;;13.07
32039;BMP280;18549;42.286;22.688;2023-03-01T04:01:36;95958.44;;;13.07
32039;BMP280;18549;42.286;22.688;2023-03-01T04:04:03;95956.84;;;13.06
32039;BMP280;18549;42.286;22.688;2023-03-01T04:06:34;95961.72;;;13.07
32039;BMP280;18549;42.286;22.688;2023-03-01T04:09:01;95962.84;;;13.03
32039;BMP280;18549;42.286;22.688;2023-03-01T04:11:28;95967.69;;;13.05
32039;BMP280;18549;42.286;22.688;2023-03-01T04:13:57;95962.13;;;12.89
32039;BMP280;18549;42.286;22.688;2023-03-01T04:16:29;95963.56;;;12.81
32039;BMP280;18549;42.286;22.688;2023-03-01T04:18:56;95957.16;;;12.89
32039;BMP280;18549;42.286;22.688;2023-03-01T04:21:25;95963.63;;;12.91
32039;BMP280;18549;42.286;22.688;2023-03-01T04:23:53;95966.12;;;12.91
32039;BMP280;18549;42.286;22.688;2023-03-01T04:26:20;95964.84;;;12.86
32039;BMP280;18549;42.286;22.688;2023-03-01T04:28:47;95970.50;;;12.88
32039;BMP280;18549;42.286;22.688;2023-03-01T04:31:18;95966.25;;;12.90
32039;BMP280;18549;42.286;22.688;2023-03-01T04:33:47;95966.41;;;12.87
32039;BMP280;18549;42.286;22.688;2023-03-01T04:36:15;95963.06;;;12.88
32039;BMP280;18549;42.286;22.688;2023-03-01T04:38:43;95969.50;;;12.90
32039;BMP280;18549;42.286;22.688;2023-03-01T04:41:16;95970.31;;;12.91
32039;BMP280;18549;42.286;22.688;2023-03-01T04:43:44;95971.53;;;12.86
32039;BMP280;18549;42.286;22.688;2023-03-01T04:46:13;95970.72;;;12.85
32039;BMP280;18549;42.286;22.688;2023-03-01T04:48:41;95977.50;;;12.83
32039;BMP280;18549;42.286;22.688;2023-03-01T04:51:09;95972.53;;;12.83
32039;BMP280;18549;42.286;22.688;2023-03-01T04:53:39;95965.12;;;12.69
32039;BMP280;18549;42.286;22.688;2023-03-01T04:56:06;95967.50;;;12.71
32039;BMP280;18549;42.286;22.688;2023-03-01T04:58:35;95969.91;;;12.72
32039;BMP280;18549;42.286;22.688;2023-03-01T05:01:09;95979.25;;;12.69
32039;BMP280;18549;42.286;22.688;2023-03-01T05:03:41;95982.44;;;12.71
32039;BMP280;18549;42.286;22.688;2023-03-01T05:06:08;95981.72;;;12.69
32039;BMP280;18549;42.286;22.688;2023-03-01T05:08:36;95985.22;;;12.66
32039;BMP280;18549;42.286;22.688;2023-03-01T05:11:04;95983.44;;;12.68
32039;BMP280;18549;42.286;22.688;2023-03-01T05:13:31;95985.34;;;12.65
32039;BMP280;18549;42.286;22.688;2023-03-01T05:16:01;95989.53;;;12.64
32039;BMP280;18549;42.286;22.688;2023-03-01T05:18:30;95988.81;;;12.62
32039;BMP280;18549;42.286;22.688;2023-03-01T05:21:02;95988.41;;;12.56
32039;BMP280;18549;42.286;22.688;2023-03-01T05:23:30;95993.59;;;12.53
32039;BMP280;18549;42.286;22.688;2023-03-01T05:25:58;95992.59;;;12.55
32039;BMP280;18549;42.286;22.688;2023-03-01T05:28:26;96000.94;;;12.54
32039;BMP280;18549;42.286;22.688;2023-03-01T05:30:53;95997.16;;;12.49
32039;BMP280;18549;42.286;22.688;2023-03-01T05:33:22;96006.03;;;12.53
32039;BMP280;18549;42.286;22.688;2023-03-01T05:35:49;96011.09;;;12.52
32039;BMP280;18549;42.286;22.688;2023-03-01T05:38:17;96021.25;;;12.49
32039;BMP280;18549;42.286;22.688;2023-03-01T05:40:46;96010.47;;;12.36
32039;BMP280;18549;42.286;22.688;2023-03-01T05:43:17;96018.62;;;12.38
32039;BMP280;18549;42.286;22.688;2023-03-01T05:45:44;96026.00;;;12.39
32039;BMP280;18549;42.286;22.688;2023-03-01T05:48:12;96034.91;;;12.29
32039;BMP280;18549;42.286;22.688;2023-03-01T05:50:42;96034.72;;;12.32
32039;BMP280;18549;42.286;22.688;2023-03-01T05:53:11;96038.03;;;12.33
32039;BMP280;18549;42.286;22.688;2023-03-01T05:55:39;96038.59;;;12.24
32039;BMP280;18549;42.286;22.688;2023-03-01T05:58:09;96033.91;;;12.19
32039;BMP280;18549;42.286;22.688;2023-03-01T06:00:36;96041.97;;;12.23
32039;BMP280;18549;42.286;22.688;2023-03-01T06:03:03;96044.44;;;12.23
32039;BMP280;18549;42.286;22.688;2023-03-01T06:05:30;96047.84;;;12.22
32039;BMP280;18549;42.286;22.688;2023-03-01T06:08:00;96054.38;;;12.23
32039;BMP280;18549;42.286;22.688;2023-03-01T06:10:28;96053.16;;;12.04
32039;BMP280;18549;42.286;22.688;2023-03-01T06:12:55;96056.53;;;12.03
32039;BMP280;18549;42.286;22.688;2023-03-01T06:15:23;96056.84;;;12.11
32039;BMP280;18549;42.286;22.688;2023-03-01T06:17:49;96056.66;;;12.14
32039;BMP280;18549;42.286;22.688;2023-03-01T06:20:18;96060.84;;;12.13
32039;BMP280;18549;42.286;22.688;2023-03-01T06:22:45;96059.94;;;12.14
32039;BMP280;18549;42.286;22.688;2023-03-01T06:25:16;96060.75;;;12.15
32039;BMP280;18549;42.286;22.688;2023-03-01T06:27:43;96064.53;;;12.20
32039;BMP280;18549;42.286;22.688;2023-03-01T06:30:12;96066.44;;;12.17
32039;BMP280;18549;42.286;22.688;2023-03-01T06:32:40;96067.22;;;12.17
32039;BMP280;18549;42.286;22.688;2023-03-01T06:35:08;96074.47;;;12.20
32039;BMP280;18549;42.286;22.688;2023-03-01T06:37:34;96062.31;;;12.16
32039;BMP280;18549;42.286;22.688;2023-03-01T06:40:01;96064.53;;;12.20
32039;BMP280;18549;42.286;22.688;2023-03-01T06:42:36;96065.72;;;12.15
32039;BMP280;18549;42.286;22.688;2023-03-01T06:45:03;96070.41;;;12.19
32039;BMP280;18549;42.286;22.688;2023-03-01T06:47:31;96071.09;;;12.21
32039;BMP280;18549;42.286;22.688;2023-03-01T06:49:58;96081.22;;;12.18
32039;BMP280;18549;42.286;22.688;2023-03-01T06:52:25;96076.37;;;12.17
32039;BMP280;18549;42.286;22.688;2023-03-01T06:54:52;96076.97;;;12.20
32039;BMP280;18549;42.286;22.688;2023-03-01T06:57:19;96070.50;;;12.18
32039;BMP280;18549;42.286;22.688;2023-03-01T06:59:48;96071.28;;;12.18
32039;BMP280;18549;42.286;22.688;2023-03-01T07:02:16;96077.31;;;12.14
32039;BMP280;18549;42.286;22.688;2023-03-01T07:04:43;96078.22;;;12.13
32039;BMP280;18549;42.286;22.688;2023-03-01T07:07:10;96078.94;;;12.15
32039;BMP280;18549;42.286;22.688;2023-03-01T07:09:37;96071.47;;;12.15
32039;BMP280;18549;42.286;22.688;2023-03-01T07:12:04;96069.50;;;12.20
32039;BMP280;18549;42.286;22.688;2023-03-01T07:14:31;96076.53;;;12.14
32039;BMP280;18549;42.286;22.688;2023-03-01T07:16:59;96077.53;;;12.11
32039;BMP280;18549;42.286;22.688;2023-03-01T07:19:26;96071.69;;;12.12
32039;BMP280;18549;42.286;22.688;2023-03-01T07:21:53;96075.75;;;12.13
32039;BMP280;18549;42.286;22.688;2023-03-01T07:24:20;96070.69;;;12.15
32039;BMP280;18549;42.286;22.688;2023-03-01T07:26:48;96067.22;;;12.17
32039;BMP280;18549;42.286;22.688;2023-03-01T07:29:15;96068.72;;;12.19
32039;BMP280;18549;42.286;22.688;2023-03-01T07:31:42;96066.31;;;12.18
32039;BMP280;18549;42.286;22.688;2023-03-01T07:34:10;96063.13;;;12.16
32039;BMP280;18549;42.286;22.688;2023-03-01T07:36:37;96065.88;;;12.12
32039;BMP280;18549;42.286;22.688;2023-03-01T07:39:08;96059.41;;;12.09
32039;BMP280;18549;42.286;22.688;2023-03-01T07:41:36;96073.13;;;12.02
32039;BMP280;18549;42.286;22.688;2023-03-01T07:44:02;96061.41;;;12.04
32039;BMP280;18549;42.286;22.688;2023-03-01T07:46:29;96065.28;;;12.08
32039;BMP280;18549;42.286;22.688;2023-03-01T07:49:28;96059.41;;;12.09
32039;BMP280;18549;42.286;22.688;2023-03-01T07:51:55;96060.31;;;12.08
32039;BMP280;18549;42.286;22.688;2023-03-01T07:54:22;96054.38;;;12.11
32039;BMP280;18549;42.286;22.688;2023-03-01T07:56:48;96056.75;;;12.12
32039;BMP280;18549;42.286;22.688;2023-03-01T07:59:17;96054.44;;;12.09
32039;BMP280;18549;42.286;22.688;2023-03-01T08:01:45;96051.38;;;12.06
32039;BMP280;18549;42.286;22.688;2023-03-01T08:04:12;96052.87;;;12.08
32039;BMP280;18549;42.286;22.688;2023-03-01T08:06:40;96046.81;;;12.12
32039;BMP280;18549;42.286;22.688;2023-03-01T08:09:07;96047.34;;;12.17
32039;BMP280;18549;42.286;22.688;2023-03-01T08:11:34;96048.22;;;12.16
32039;BMP280;18549;42.286;22.688;2023-03-01T08:14:01;96051.66;;;12.01
32039;BMP280;18549;42.286;22.688;2023-03-01T08:16:28;96055.97;;;11.86
32039;BMP280;18549;42.286;22.688;2023-03-01T08:18:55;96054.91;;;11.89
32039;BMP280;18549;42.286;22.688;2023-03-01T08:21:26;96048.31;;;11.88
32039;BMP280;18549;42.286;22.688;2023-03-01T08:23:54;96048.66;;;11.96
32039;BMP280;18549;42.286;22.688;2023-03-01T08:26:21;96055.84;;;12.01
32039;BMP280;18549;42.286;22.688;2023-03-01T08:28:49;96058.88;;;11.92
32039;BMP280;18549;42.286;22.688;2023-03-01T08:31:17;96054.22;;;12.00
32039;BMP280;18549;42.286;22.688;2023-03-01T08:33:45;96051.38;;;12.06
32039;BMP280;18549;42.286;22.688;2023-03-01T08:36:16;96054.28;;;12.12
32039;BMP280;18549;42.286;22.688;2023-03-01T08:38:43;96056.56;;;12.15
32039;BMP280;18549;42.286;22.688;2023-03-01T08:41:13;96054.97;;;12.14
32039;BMP280;18549;42.286;22.688;2023-03-01T08:43:40;96056.56;;;12.15
32039;BMP280;18549;42.286;22.688;2023-03-01T08:46:06;96054.78;;;12.17
32039;BMP280;18549;42.286;22.688;2023-03-01T08:48:33;96049.69;;;12.18
32039;BMP280;18549;42.286;22.688;2023-03-01T08:51:07;96052.72;;;12.23
32039;BMP280;18549;42.286;22.688;2023-03-01T08:53:34;96051.03;;;12.24
32039;BMP280;18549;42.286;22.688;2023-03-01T08:56:01;96051.81;;;12.24
32039;BMP280;18549;42.286;22.688;2023-03-01T08:58:30;96055.22;;;12.23
32039;BMP280;18549;42.286;22.688;2023-03-01T09:00:57;96048.34;;;12.27
32039;BMP280;18549;42.286;22.688;2023-03-01T09:03:24;96047.97;;;12.33
32039;BMP280;18549;42.286;22.688;2023-03-01T09:05:51;96044.56;;;12.34
32039;BMP280;18549;42.286;22.688;2023-03-01T09:08:19;96050.25;;;12.36
32039;BMP280;18549;42.286;22.688;2023-03-01T09:10:46;96050.16;;;12.37
32039;BMP280;18549;42.286;22.688;2023-03-01T09:13:13;96046.28;;;12.33
32039;BMP280;18549;42.286;22.688;2023-03-01T09:15:41;96036.25;;;12.35
32039;BMP280;18549;42.286;22.688;2023-03-01T09:18:08;96031.16;;;12.36
32039;BMP280;18549;42.286;22.688;2023-03-01T09:20:35;96034.84;;;12.31
32039;BMP280;18549;42.286;22.688;2023-03-01T09:23:01;96032.03;;;12.23
32039;BMP280;18549;42.286;22.688;2023-03-01T09:25:28;96039.47;;;12.23
32039;BMP280;18549;42.286;22.688;2023-03-01T09:27:55;96038.09;;;12.31
32039;BMP280;18549;42.286;22.688;2023-03-01T09:30:22;96032.66;;;12.39
32039;BMP280;18549;42.286;22.688;2023-03-01T09:32:50;96029.66;;;12.34
32039;BMP280;18549;42.286;22.688;2023-03-01T09:35:18;96031.28;;;12.35
32039;BMP280;18549;42.286;22.688;2023-03-01T09:37:45;96030.94;;;12.27
32039;BMP280;18549;42.286;22.688;2023-03-01T09:40:14;96025.09;;;12.28
32039;BMP280;18549;42.286;22.688;2023-03-01T09:42:48;96022.97;;;12.22
32039;BMP280;18549;42.286;22.688;2023-03-01T09:45:23;96023.56;;;12.25
32039;BMP280;18549;42.286;22.688;2023-03-01T09:47:53;96021.91;;;12.26
32039;BMP280;18549;42.286;22.688;2023-03-01T09:50:22;96021.91;;;12.26
32039;BMP280;18549;42.286;22.688;2023-03-01T09:52:54;96015.66;;;12.33
32039;BMP280;18549;42.286;22.688;2023-03-01T09:55:26;96027.09;;;12.35
32039;BMP280;18549;42.286;22.688;2023-03-01T09:58:02;96027.78;;;12.37
32039;BMP280;18549;42.286;22.688;2023-03-01T10:00:37;96024.56;;;12.23
32039;BMP280;18549;42.286;22.688;2023-03-01T10:03:13;96024.88;;;12.31
32039;BMP280;18549;42.286;22.688;2023-03-01T10:05:50;96017.22;;;12.34
32039;BMP280;18549;42.286;22.688;2023-03-01T10:08:27;96010.38;;;12.37
32039;BMP280;18549;42.286;22.688;2023-03-01T10:10:57;96010.09;;;12.42
32039;BMP280;18549;42.286;22.688;2023-03-01T10:13:31;96008.28;;;12.44
32039;BMP280;18549;42.286;22.688;2023-03-01T10:16:05;96007.09;;;12.37
32039;BMP280;18549;42.286;22.688;2023-03-01T10:18:37;96008.50;;;12.41
32039;BMP280;18549;42.286;22.688;2023-03-01T10:21:14;96006.91;;;12.40
32039;BMP280;18549;42.286;22.688;2023-03-01T10:23:42;96000.94;;;12.42
32039;BMP280;18549;42.286;22.688;2023-03-01T10:26:20;96002.34;;;12.46
32039;BMP280;18549;42.286;22.688;2023-03-01T10:28:55;96001.34;;;12.49
32039;BMP280;18549;42.286;22.688;2023-03-01T10:31:34;96000.34;;;12.51
32039;BMP280;18549;42.286;22.688;2023-03-01T10:34:12;96000.16;;;12.54
32039;BMP280;18549;42.286;22.688;2023-03-01T10:36:41;95999.84;;;12.58
32039;BMP280;18549;42.286;22.688;2023-03-01T10:39:15;95991.19;;;12.52
32039;BMP280;18549;42.286;22.688;2023-03-01T10:41:55;95989.00;;;12.47
32039;BMP280;18549;42.286;22.688;2023-03-01T10:44:44;95988.91;;;12.49
32039;BMP280;18549;42.286;22.688;2023-03-01T10:47:17;95984.81;;;12.48
32039;BMP280;18549;42.286;22.688;2023-03-01T10:49:55;95991.78;;;12.55
32039;BMP280;18549;42.286;22.688;2023-03-01T10:52:27;95991.13;;;12.53
32039;BMP280;18549;42.286;22.688;2023-03-01T10:54:56;95977.78;;;12.54
32039;BMP280;18549;42.286;22.688;2023-03-01T10:57:39;95978.25;;;12.59
32039;BMP280;18549;42.286;22.688;2023-03-01T11:00:31;95978.06;;;12.62
32039;BMP280;18549;42.286;22.688;2023-03-01T11:03:09;95975.47;;;12.63
32039;BMP280;18549;42.286;22.688;2023-03-01T11:05:51;95964.53;;;12.66
32039;BMP280;18549;42.286;22.688;2023-03-01T11:08:32;95979.44;;;12.66
32039;BMP280;18549;42.286;22.688;2023-03-01T11:13:53;95971.88;;;12.55
32039;BMP280;18549;42.286;22.688;2023-03-01T11:16:29;95959.97;;;12.60
32039;BMP280;18549;42.286;22.688;2023-03-01T11:18:59;95953.78;;;12.65
32039;BMP280;18549;42.286;22.688;2023-03-01T11:21:30;95945.41;;;12.66
32039;BMP280;18549;42.286;22.688;2023-03-01T11:24:00;95951.09;;;12.68
32039;BMP280;18549;42.286;22.688;2023-03-01T11:26:28;95946.59;;;12.73
32039;BMP280;18549;42.286;22.688;2023-03-01T11:29:02;95953.19;;;12.74
32039;BMP280;18549;42.286;22.688;2023-03-01T11:31:32;95941.16;;;12.56
32039;BMP280;18549;42.286;22.688;2023-03-01T11:34:05;95939.69;;;12.53
32039;BMP280;18549;42.286;22.688;2023-03-01T11:36:40;95933.50;;;12.59
32039;BMP280;18549;42.286;22.688;2023-03-01T11:39:18;95928.53;;;12.59
32039;BMP280;18549;42.286;22.688;2023-03-01T11:41:51;95929.75;;;12.53
32039;BMP280;18549;42.286;22.688;2023-03-01T11:44:23;95927.81;;;12.57
32039;BMP280;18549;42.286;22.688;2023-03-01T11:50:04;95923.75;;;12.68
32039;BMP280;18549;42.286;22.688;2023-03-01T11:53:00;95919.88;;;12.64
32039;BMP280;18549;42.286;22.688;2023-03-01T11:55:41;95926.81;;;12.59
32039;BMP280;18549;42.286;22.688;2023-03-01T11:58:23;95929.16;;;12.38
32039;BMP280;18549;42.286;22.688;2023-03-01T12:01:07;95922.56;;;12.37
32039;BMP280;18549;42.286;22.688;2023-03-01T12:06:44;95913.03;;;12.55
32039;BMP280;18549;42.286;22.688;2023-03-01T12:09:24;95919.97;;;12.51
32039;BMP280;18549;42.286;22.688;2023-03-01T12:12:08;95922.16;;;12.55
32039;BMP280;18549;42.286;22.688;2023-03-01T12:14:50;95917.78;;;12.58
32039;BMP280;18549;42.286;22.688;2023-03-01T12:17:37;95924.94;;;12.63
32039;BMP280;18549;42.286;22.688;2023-03-01T12:20:18;95917.97;;;12.68
32039;BMP280;18549;42.286;22.688;2023-03-01T12:23:10;95920.47;;;12.68
32039;BMP280;18549;42.286;22.688;2023-03-01T12:25:46;95915.41;;;12.69
32039;BMP280;18549;42.286;22.688;2023-03-01T12:34:15;95933.28;;;12.74
32039;BMP280;18549;42.286;22.688;2023-03-01T12:37:11;95926.53;;;12.76
32039;BMP280;18549;42.286;22.688;2023-03-01T12:39:46;95919.59;;;12.81
32039;BMP280;18549;42.286;22.688;2023-03-01T12:42:23;95919.97;;;12.87
32039;BMP280;18549;42.286;22.688;2023-03-01T12:45:04;95909.19;;;12.87
32039;BMP280;18549;42.286;22.688;2023-03-01T12:47:52;95910.59;;;12.91
32039;BMP280;18549;42.286;22.688;2023-03-01T12:50:23;95913.09;;;12.91
32039;BMP280;18549;42.286;22.688;2023-03-01T12:52:52;95907.22;;;12.92
32039;BMP280;18549;42.286;22.688;2023-03-01T12:55:27;95912.19;;;12.92
32039;BMP280;18549;42.286;22.688;2023-03-01T12:58:02;95904.62;;;12.93
32039;BMP280;18549;42.286;22.688;2023-03-01T13:00:37;95900.53;;;12.92
32039;BMP280;18549;42.286;22.688;2023-03-01T13:03:15;95900.25;;;12.97
32039;BMP280;18549;42.286;22.688;2023-03-01T13:05:56;95896.75;;;12.99
32039;BMP280;18549;42.286;22.688;2023-03-01T13:08:31;95897.31;;;13.03
32039;BMP280;18549;42.286;22.688;2023-03-01T13:11:00;95890.22;;;13.09
32039;BMP280;18549;42.286;22.688;2023-03-01T13:13:30;95892.84;;;13.08
32039;BMP280;18549;42.286;22.688;2023-03-01T13:15:57;95895.00;;;13.12
32039;BMP280;18549;42.286;22.688;2023-03-01T13:18:44;95895.22;;;13.09
32039;BMP280;18549;42.286;22.688;2023-03-01T13:21:12;95890.22;;;13.09
32039;BMP280;18549;42.286;22.688;2023-03-01T13:23:39;95883.41;;;13.00
32039;BMP280;18549;42.286;22.688;2023-03-01T13:26:14;95876.41;;;13.05
32039;BMP280;18549;42.286;22.688;2023-03-01T13:28:51;95888.97;;;13.04
32039;BMP280;18549;42.286;22.688;2023-03-01T13:34:43;95880.28;;;13.09
32039;BMP280;18549;42.286;22.688;2023-03-01T13:37:19;95872.81;;;13.09
32039;BMP280;18549;42.286;22.688;2023-03-01T13:39:46;95875.00;;;13.14
32039;BMP280;18549;42.286;22.688;2023-03-01T13:42:35;95872.28;;;13.17
32039;BMP280;18549;42.286;22.688;2023-03-01T13:45:21;95867.31;;;13.17
32039;BMP280;18549;42.286;22.688;2023-03-01T13:48:00;95868.69;;;13.20
32039;BMP280;18549;42.286;22.688;2023-03-01T13:50:30;95868.91;;;13.18
32039;BMP280;18549;42.286;22.688;2023-03-01T13:53:02;95873.19;;;13.16
32039;BMP280;18549;42.286;22.688;2023-03-01T13:55:37;95859.38;;;13.12
32039;BMP280;18549;42.286;22.688;2023-03-01T13:58:12;95862.31;;;13.17
32039;BMP280;18549;42.286;22.688;2023-03-01T14:00:42;95859.50;;;13.21
32039;BMP280;18549;42.286;22.688;2023-03-01T14:03:12;95867.69;;;13.23
32039;BMP280;18549;42.286;22.688;2023-03-01T14:05:41;95861.31;;;13.19
32039;BMP280;18549;42.286;22.688;2023-03-01T14:08:20;95868.38;;;13.25
32039;BMP280;18549;42.286;22.688;2023-03-01T14:10:56;95866.34;;;13.30
32039;BMP280;18549;42.286;22.688;2023-03-01T14:13:36;95866.09;;;13.22
32039;BMP280;18549;42.286;22.688;2023-03-01T14:16:22;95861.53;;;13.16
32039;BMP280;18549;42.286;22.688;2023-03-01T14:18:56;95864.16;;;13.15
32039;BMP280;18549;42.286;22.688;2023-03-01T14:21:25;95860.97;;;13.13
32039;BMP280;18549;42.286;22.688;2023-03-01T14:23:53;95856.69;;;13.15
32039;BMP280;18549;42.286;22.688;2023-03-01T14:26:21;95870.47;;;13.18
32039;BMP280;18549;42.286;22.688;2023-03-01T14:28:48;95859.31;;;13.24
32039;BMP280;18549;42.286;22.688;2023-03-01T14:31:38;95863.94;;;13.18
32039;BMP280;18549;42.286;22.688;2023-03-01T14:34:19;95863.13;;;13.17
32039;BMP280;18549;42.286;22.688;2023-03-01T14:36:46;95867.91;;;13.20
32039;BMP280;18549;42.286;22.688;2023-03-01T14:39:17;95870.28;;;13.21